Timeline UpdatesTrip UpdatesNews PostsPvt PostsTravel TipsAdmin PostsConv PostsFollowed PostsChat RequestsBlog PostsPNR Posts

Disclaimer
Search
 
 
Mon Sep 15, 2014 14:56:54 ISTHomeTrainsΣChainsAtlasPNRForumGalleryNewsFAQTripsMembersLoginFeedback
No Recent News for this Train
Other Trains in the News **new
Latest...
Cancelled on 3/8/14
Fri Aug 01, 2014 (08:09PM)
⇐ Return Journey: Train# 58118

58117/Jharsuguda-Gondia Passenger (UnReserved)

Time-Table HAS CHANGED.
Sep 03 (8:47PM)
Change Departure Station:
Change Arrival Station:
Post a Train Travel TipPost a Train Travel Tip **new
Post a Comment/Question/Picture/VideoPost a Comment/Question/Picture/Video
Pantry/Catering
???
RSA - Rake Sharing
Rake/Coach Composition
Loco
News    PNR    Forum    Time-Table    Availability    Fare Chart    Map    Arr/Dep History    Trips    Gallery    ΣChains    X/O    Timeline    
Travel Time: 14h 0m    63 halts    Distance: 487 km    Avg Speed: 34 km/hr
Type: Passenger
Zone: SER/South Eastern
Departs @ 07:15 (Avg 1m late)
Platform# ???
SMTWTFS
Jharsuguda Junction/JSG 
Arrives @ 21:15 (Avg 9m late)
Platform# 2
SMTWTFS
Gondia Junction/G 

63 halts. 64 intermediate Stations between Jharsuguda Junction and Gondia Junction

Show ALL intermediate Stations  Show Old Time-Table

#CodeStation NameX/OArrivesAvgDepartsAvgHaltPFDay#KmSpeedElevZoneAddress
1JSG»Jharsuguda Junction (5)»  -07:15+1--10.0-236mSERJharsuguda, Odisha
2IBIb  07:20 07:16+1107:21 07:17+131m--19.040207mSECRJharsuguda, Odisha
3BRJNBrajrajnagarX  07:23 07:21+1607:25 07:23+172m--111.776212mSECRBrajrajnagar, Odisha
4BPHBelpahar  07:31 07:30+2507:32+271 2m--120.673 SECRBelpahar, Odisha
5HGRHimgir  07:44 07:43+2907:45+331 2m--134.064275mSECRNational Highway 200, Chhattisgarh
6DAODaghora  07:53 07:52+3307:54+341 2m--141.472269mSECRRaigarh, Chhattisgarh
7JMGJamga  08:05 08:04+3308:06+371 2m--153.473233mSECRJamga Station, Chhattisgarh
8KRLKotarlia  08:14 08:13+3708:15+391 2m--161.939229mSECRRaigarh, Chhattisgarh
9RIGRaigarh (3)O  08:30+3209:00+1930m--171.772220mSECRRaigarh, Chhattisgarh
10KDTRKirodimalnagar (5)X  09:06+2109:07 09:08+231 2m--178.879240mSECRRaigarh, Chhattisgarh
11BEFBhupdeopur  09:16 09:15+2409:17+241 2m--188.177243mSECRRaigarh, Chhattisgarh
12ROBRobertsonO  09:26 09:24+2809:27 09:26+311 2m--197.157239mSECRRaigarh, Chhattisgarh
13KHSKharsiaX  09:35+2709:36 09:37+271 2m--1105.663 SECRNational Highway 200, Chhattisgarh
14JDIJharradihX  09:42+3509:44+382m--1110.876247mSECRRaigarh, Chhattisgarh
15SKTSakti (4)  09:53 09:52+3809:54+441 2m--1121.052237mSECRJanjgir-Champa, Chhattisgarh
16JDDAJethaX  10:07 10:03-10:08 10:05-1 2m--1128.871244mSECRNational Highway 200, Chhattisgarh
17BUABaradwarX  10:14 10:11+4010:15 10:13+421 2m--1135.956 SECRJanjgir-Champa, Chhattisgarh
18SGRDSaragaon RoadX  10:22 10:20-10:23 10:22-1 2m--1142.438254mSECRNational Highway 200, Chhattisgarh
19CPHChampa Junction (3)X  10:38 10:36+3910:43 10:41+385m--1151.481264mSECRNational Highway 200 (07819-245767), Chhattisgarh
20NIANailaX  10:52 10:49+4010:53 10:51+421 2m--1162.272273mSECRJanjgir, Chhattisgarh
21KPNAKapan (1)X  11:02 10:57-11:03 10:59-1 2m11169.566263mSECRNational Highway 200, Chhattisgarh
22AKTAkaltara (4)X  11:12 11:06+4611:13 11:08+471 2m--1177.264284mSECRDist. Janjgir Champa, Chhattisgarh
23KTSHKotmi Sonar Halt  11:20 11:14-11:21 11:16-1 2m--1183.667266mSECRKotmisunar, Chhattisgarh
24JRMGJairamnagarX  11:28 11:22+4611:29 11:24+471 2m--1190.333272mSECRNational Highway 200, Chhattisgarh
25GTWGatora  11:42 11:38+4311:43 11:40+431 2m--1197.98268mSECRBilaspur, Chhattisgarh
26BSPBilaspur Junction (8)X  12:30+913:00+1130m--1204.431271mSECRBilaspur, Chhattisgarh
27DPHDadhapara (3)  13:12 13:13+2113:13 13:14+211m--1211.146272mSECRBilaspur, Chhattisgarh
28CHBTChakarbhathaX  13:17 13:18-13:18 13:20-1 2m--1214.170285mSECRBilaspur, Chhattisgarh
29BYLBelha  13:24 13:25+2413:25 13:27+251 2m--1219.977269mSECRCollege Road, Chhattisgarh
30DGSDagoriXO  13:32 13:33+2513:33 13:35+251 2m--1227.649254mSECRCollege Road, Chhattisgarh
31NPINipaniaX  13:42 13:45+2713:43 13:47+291 2m--1235.980259mSECRNational Highway 200, Chhattisgarh
32BYTBhatapara (4)XO  13:54 13:58+2013:55 14:00+211 2m--1250.684270mSECRBanjari Road, Chhattisgarh
33HNHathbandh  14:07 14:11+3714:08 14:13+381 2m--1265.980283mSECRRaipur, Chhattisgarh
34TLDTilda (3)O  14:22 14:21+3314:23 14:25+341 4m--1276.6122 SECRBanjari Rd, Chhattisgarh
35BKTHBaikunthXO  14:29 14:28+3314:30+321 2m--1282.850287mSECRBanjari Rd, Chhattisgarh
36SLHSiliariX  14:44 14:40+3514:45 14:42+381 2m--1291.164280mSECRBanjari Rd, Chhattisgarh
37MDHMandharX  14:59 14:51+4115:00 14:52+471m--1300.739281mSECRDonde Kalan, Chhattisgarh
38URKUrkura  15:09 15:05+4815:10 15:07+521 2m--1309.230275mSECRRaipur, Chhattisgarh
39WRCWRS Colony PHXO  15:17 15:13-15:18 15:14-1m--1312.24286mSECRRaipur, Chhattisgarh
40RRaipur Junction (6)XO  15:50+1416:30+1240m--1314.823297mSECRRaipur, Chhattisgarh
41SRWNSaraswatinagar (2)X  16:35 16:36-16:36 16:38-1 2m--1317.148291mSECRRaipur, Chhattisgarh
42SZBSarona Cabin (2)X  16:42 16:43+1716:43 16:44+171m--1321.162282mSECRRaipur, Chhattisgarh
43KMIKumhari (2)  16:49 16:50+2316:50 16:51+231m--1327.262287mSECRKumhari, Chhattisgarh
44 new halt!!  16:56-16:57-1m--1332.4620m???
45 new halt!!  17:01-17:03-2m--1336.5180m???
46BIABhilai (2)X  17:07 17:08+2317:08 17:10+231 2m--1338.056309mSECRBhilai, Chhattisgarh
47BPHBBhilai Power House (3)X  17:14 17:15+517:15 17:17+51 2m--1342.633312mSECRBhilai, Chhattisgarh
48BQRBhilai Nagar (2)  17:24 17:25+1517:25 17:26+151m--1347.114298mSECRBhilai, Chhattisgarh
49DURGDurg Junction (6)X  17:45+217:50+25m--1351.669299mSECRPh: 91-788-2322059, Chhattisgarh
50RSMRasmaraX  17:56 17:57+2117:57 17:58+221m--1359.675292mSECRRasmada, Chhattisgarh
51MUPMurhipar  18:03 18:04+2218:04 18:06+231 2m--1367.170319mSECRRajnandgaon, Chhattisgarh
52PMSParmalkasaX  18:11 18:12+2318:12 18:13+231m--1374.168300mSECRRajnandgaon, Chhattisgarh
53RJNRaj Nandgaon (3)  18:20+1418:22+172m--1382.079313mSECRRajnandgaon, Chhattisgarh
54BAKLBakal  18:29 18:30+3118:30 18:31+311m--1392.678318mSECRRajnandgaon, Chhattisgarh
55MUAMusraXO  18:37+3318:38+351m--1400.466323mSECRRajnandgaon, Chhattisgarh
56JTRJatkanhar  18:44+3518:45+371m--1407.039330mSECRRajnandgaon, Chhattisgarh
57DGGDongargarh (2)X  18:55+3019:05+3110m--1413.658 SECRDongargarh, Chhattisgarh
58PJBPaniajob (2)  19:12 19:13+3819:13 19:14+391m--1421.253363mSECRRajnandgaon, Chhattisgarh
59BTLBortalao (2)  19:23 19:24+3919:24 19:25+431m--1430.177409mSECRRajnandgaon, Chhattisgarh
60DKSDarekasa (2)X  19:31+4219:32+441m--1437.849381mSECRRajnandgaon, Chhattisgarh
61SKSSalekasa (2)  19:45 19:46+4219:46 19:48+421 2m--1449.375312mSECRRajnandgaon, Chhattisgarh
62DNLDhanoli (2)  19:54-19:55-1m--1456.862310mSECRAmgaon, Maharashtra
63AGNAmgaon (2)X  20:01 20:02+3520:02 20:04+381 2m--1464.073317mSECRGondia, Maharashtra
64GDMGudma (2)  20:17 20:13+3820:18 20:14+381m--1474.912323mSECRGondia, Maharashtra
65G•Gondia Junction (7)•  21:20 21:15+9-21486.8-316mSECRGondia 441601, Maharashtra
Scroll to Top
Scroll to Bottom